createdAt,value
2022-07-26T00:00:10.698Z,50.877186
2022-07-26T00:01:10.752Z,50.877182
2022-07-26T00:02:13.134Z,50.877186
2022-07-26T00:03:11.672Z,50.877186
2022-07-26T00:04:10.659Z,50.877167
2022-07-26T00:05:10.651Z,50.877159
2022-07-26T00:06:10.643Z,50.877167
2022-07-26T00:07:10.635Z,50.877167
2022-07-26T00:08:10.784Z,50.877178
2022-07-26T00:09:11.194Z,50.877167
2022-07-26T00:10:10.604Z,50.877163
2022-07-26T00:11:10.587Z,50.877171
2022-07-26T00:12:10.629Z,50.877171
2022-07-26T00:13:10.576Z,50.877178
2022-07-26T00:14:10.555Z,50.877151
2022-07-26T00:15:10.582Z,50.877163
2022-07-26T00:16:10.601Z,50.877163
2022-07-26T00:17:10.530Z,50.877174
2022-07-26T00:18:12.096Z,50.877178
2022-07-26T00:19:10.951Z,50.877190
2022-07-26T00:20:10.531Z,50.877201
2022-07-26T00:21:11.596Z,50.877193
2022-07-26T00:22:10.477Z,50.877178
2022-07-26T00:23:10.471Z,50.877193
2022-07-26T00:24:10.473Z,50.877205
2022-07-26T00:25:10.496Z,50.877205
2022-07-26T00:26:10.441Z,50.877178
2022-07-26T00:27:10.436Z,50.877201
2022-07-26T00:28:10.468Z,50.877159
2022-07-26T00:29:10.818Z,50.877163
2022-07-26T00:30:10.403Z,50.877182
2022-07-26T00:31:10.497Z,50.877232
2022-07-26T00:32:10.392Z,50.877155
2022-07-26T00:33:10.397Z,50.877171
2022-07-26T00:34:10.355Z,50.877178
2022-07-26T00:35:10.361Z,50.877171
2022-07-26T00:36:10.332Z,50.877129
2022-07-26T00:37:10.328Z,50.877136
2022-07-26T00:38:10.419Z,50.877148
2022-07-26T00:39:10.758Z,50.877151
2022-07-26T00:40:10.298Z,50.877159
2022-07-26T00:41:10.282Z,50.877174
2022-07-26T00:42:10.268Z,50.877151
2022-07-26T00:43:10.281Z,50.877132
2022-07-26T00:44:42.186Z,50.877136
2022-07-26T00:45:10.246Z,50.877148
2022-07-26T00:46:10.320Z,50.877136
2022-07-26T00:47:10.227Z,50.877106
2022-07-26T00:48:10.202Z,50.877110
2022-07-26T00:49:10.627Z,50.877159
2022-07-26T00:50:10.211Z,50.877155
2022-07-26T00:51:10.171Z,50.877163
2022-07-26T00:52:10.160Z,50.877140
2022-07-26T00:53:10.163Z,50.877151
2022-07-26T00:54:10.142Z,50.877125
2022-07-26T00:55:10.167Z,50.877125
2022-07-26T00:56:10.124Z,50.877159
2022-07-26T00:57:10.117Z,50.877125
2022-07-26T00:58:10.109Z,50.877132
2022-07-26T00:59:10.680Z,50.877117
2022-07-26T01:00:10.107Z,50.877117
2022-07-26T01:01:10.161Z,50.877144
2022-07-26T01:02:10.143Z,50.877159
2022-07-26T01:03:10.093Z,50.877148
2022-07-26T01:04:10.340Z,50.877155
2022-07-26T01:05:10.055Z,50.877125
2022-07-26T01:06:10.036Z,50.877129
2022-07-26T01:07:14.650Z,50.877113
2022-07-26T01:08:11.033Z,50.877110
2022-07-26T01:09:10.021Z,50.877083
2022-07-26T01:10:10.006Z,50.877087
2022-07-26T01:11:10.005Z,50.877136
2022-07-26T01:12:09.987Z,50.877140
2022-07-26T01:13:09.975Z,50.877159
2022-07-26T01:14:10.433Z,50.877129
2022-07-26T01:15:09.952Z,50.877178
2022-07-26T01:16:09.987Z,50.877098
2022-07-26T01:17:09.942Z,50.877190
2022-07-26T01:18:09.919Z,50.877186
2022-07-26T01:19:09.950Z,50.877171
2022-07-26T01:20:09.887Z,50.877174
2022-07-26T01:21:13.896Z,50.877171
2022-07-26T01:22:14.188Z,50.877186
2022-07-26T01:23:10.869Z,50.877151
2022-07-26T01:24:10.179Z,50.877174
2022-07-26T01:25:10.856Z,50.877178
2022-07-26T01:26:09.830Z,50.877182
2022-07-26T01:27:09.820Z,50.877155
2022-07-26T01:28:09.797Z,50.877163
2022-07-26T01:29:09.791Z,50.877148
2022-07-26T01:30:09.828Z,50.877174
2022-07-26T01:31:10.815Z,50.877171
2022-07-26T01:32:09.768Z,50.877167
2022-07-26T01:33:09.745Z,50.877159
2022-07-26T01:34:09.968Z,50.877174
2022-07-26T01:35:09.737Z,50.877178
2022-07-26T01:36:09.756Z,50.877186
2022-07-26T01:37:09.721Z,50.877186
2022-07-26T01:38:09.705Z,50.877186
2022-07-26T01:39:09.688Z,50.877182
2022-07-26T01:40:09.678Z,50.877190
2022-07-26T01:41:09.692Z,50.877182
2022-07-26T01:42:09.665Z,50.877182
2022-07-26T01:43:09.657Z,50.877197
2022-07-26T01:44:09.951Z,50.877201
2022-07-26T01:45:09.631Z,50.877186
2022-07-26T01:46:09.685Z,50.877193
2022-07-26T01:47:09.637Z,50.877182
2022-07-26T01:48:09.604Z,50.877190
2022-07-26T01:49:09.670Z,50.877193
2022-07-26T01:50:09.582Z,50.877190
2022-07-26T01:51:09.594Z,50.877186
2022-07-26T01:52:09.575Z,50.877193
2022-07-26T01:53:09.567Z,50.877190
2022-07-26T01:54:10.096Z,50.877186
2022-07-26T01:55:09.527Z,50.877178
2022-07-26T01:56:09.538Z,50.877178
2022-07-26T01:57:09.506Z,50.877190
2022-07-26T01:58:09.521Z,50.877182
2022-07-26T01:59:09.493Z,50.877182
2022-07-26T02:00:09.483Z,50.877201
2022-07-26T02:01:09.512Z,50.877190
2022-07-26T02:02:09.534Z,50.877178
2022-07-26T02:03:09.613Z,50.877190
2022-07-26T02:04:09.874Z,50.877190
2022-07-26T02:05:09.436Z,50.877205
2022-07-26T02:06:09.423Z,50.877190
2022-07-26T02:07:13.167Z,50.877178
2022-07-26T02:08:10.221Z,50.877205
2022-07-26T02:09:11.567Z,50.877205
2022-07-26T02:10:09.389Z,50.877205
2022-07-26T02:11:09.376Z,50.877213
2022-07-26T02:12:09.367Z,50.877197
2022-07-26T02:13:09.348Z,50.877209
2022-07-26T02:14:09.997Z,50.877213
2022-07-26T02:15:09.344Z,50.877167
2022-07-26T02:16:09.374Z,50.877190
2022-07-26T02:17:09.307Z,50.877205
2022-07-26T02:18:09.315Z,50.877220
2022-07-26T02:19:09.296Z,50.877224
2022-07-26T02:20:09.306Z,50.877190
2022-07-26T02:21:09.272Z,50.877178
2022-07-26T02:22:09.268Z,50.877182
2022-07-26T02:23:09.257Z,50.877201
2022-07-26T02:24:09.561Z,50.877178
2022-07-26T02:25:09.237Z,50.877201
2022-07-26T02:26:09.227Z,50.877193
2022-07-26T02:27:09.223Z,50.877209
2022-07-26T02:28:09.210Z,50.877232
2022-07-26T02:29:09.209Z,50.877228
2022-07-26T02:30:09.183Z,50.877239
2022-07-26T02:31:09.258Z,50.877216
2022-07-26T02:32:10.187Z,50.877186
2022-07-26T02:33:09.165Z,50.877266
2022-07-26T02:34:09.704Z,50.877209
2022-07-26T02:35:09.129Z,50.877205
2022-07-26T02:36:09.133Z,50.877201
2022-07-26T02:37:09.135Z,50.877155
2022-07-26T02:38:09.125Z,50.877174
2022-07-26T02:39:09.094Z,50.877186
2022-07-26T02:40:09.090Z,50.877205
2022-07-26T02:41:09.096Z,50.877193
2022-07-26T02:42:09.060Z,50.877201
2022-07-26T02:43:09.075Z,50.877155
2022-07-26T02:44:09.500Z,50.877193
2022-07-26T02:45:09.024Z,50.877197
2022-07-26T02:46:09.059Z,50.877216
2022-07-26T02:47:09.008Z,50.877213
2022-07-26T02:48:08.996Z,50.877205
2022-07-26T02:49:09.106Z,50.877228
2022-07-26T02:50:08.976Z,50.877213
2022-07-26T02:51:08.992Z,50.877182
2022-07-26T02:52:08.957Z,50.877159
2022-07-26T02:53:08.960Z,50.877140
2022-07-26T02:54:09.230Z,50.877213
2022-07-26T02:55:08.925Z,50.877254
2022-07-26T02:56:08.914Z,50.877220
2022-07-26T02:57:08.902Z,50.877174
2022-07-26T02:58:08.897Z,50.877201
2022-07-26T02:59:08.915Z,50.877186
2022-07-26T03:00:08.873Z,50.877201
2022-07-26T03:01:08.894Z,50.877224
2022-07-26T03:02:08.939Z,50.877251
2022-07-26T03:03:08.927Z,50.877243
2022-07-26T03:04:09.168Z,50.877220
2022-07-26T03:05:08.855Z,50.877159
2022-07-26T03:06:08.832Z,50.877129
2022-07-26T03:07:08.803Z,50.877216
2022-07-26T03:08:08.807Z,50.877201
2022-07-26T03:09:08.800Z,50.877216
2022-07-26T03:10:08.797Z,50.877243
2022-07-26T03:11:11.972Z,50.877186
2022-07-26T03:12:08.777Z,50.877205
2022-07-26T03:13:08.751Z,50.877182
2022-07-26T03:14:09.179Z,50.877213
2022-07-26T03:15:08.735Z,50.877178
2022-07-26T03:16:08.768Z,50.877186
2022-07-26T03:17:08.727Z,50.877171
2022-07-26T03:18:08.699Z,50.877220
2022-07-26T03:19:08.693Z,50.877178
2022-07-26T03:20:08.683Z,50.877148
2022-07-26T03:21:08.674Z,50.877228
2022-07-26T03:22:08.676Z,50.877190
2022-07-26T03:23:08.674Z,50.877182
2022-07-26T03:24:08.928Z,50.877163
2022-07-26T03:25:08.647Z,50.877171
2022-07-26T03:26:08.628Z,50.877193
2022-07-26T03:27:08.618Z,50.877197
2022-07-26T03:28:08.630Z,50.877190
2022-07-26T03:29:08.595Z,50.877216
2022-07-26T03:30:08.575Z,50.877186
2022-07-26T03:31:08.656Z,50.877247
2022-07-26T03:32:08.567Z,50.877239
2022-07-26T03:33:08.593Z,50.877193
2022-07-26T03:34:08.994Z,50.877140
2022-07-26T03:35:08.527Z,50.877190
2022-07-26T03:36:11.452Z,50.877201
2022-07-26T03:37:08.503Z,50.877205
2022-07-26T03:38:08.521Z,50.877167
2022-07-26T03:39:08.496Z,50.877171
2022-07-26T03:40:08.494Z,50.877182
2022-07-26T03:41:08.488Z,50.877220
2022-07-26T03:42:08.472Z,50.877224
2022-07-26T03:43:08.472Z,50.877197
2022-07-26T03:44:08.879Z,50.877213
2022-07-26T03:45:08.449Z,50.877186
2022-07-26T03:46:08.515Z,50.877232
2022-07-26T03:47:08.426Z,50.877220
2022-07-26T03:48:08.406Z,50.877251
2022-07-26T03:49:10.961Z,50.877186
2022-07-26T03:50:08.394Z,50.877216
2022-07-26T03:51:08.373Z,50.877205
2022-07-26T03:52:08.371Z,50.877193
2022-07-26T03:53:08.373Z,50.877243
2022-07-26T03:54:08.674Z,50.877262
2022-07-26T03:55:08.334Z,50.877216
2022-07-26T03:56:08.342Z,50.877182
2022-07-26T03:57:08.374Z,50.877182
2022-07-26T03:58:08.309Z,50.877216
2022-07-26T03:59:08.311Z,50.877178
2022-07-26T04:00:08.297Z,50.877224
2022-07-26T04:01:08.346Z,50.877228
2022-07-26T04:02:08.340Z,50.877239
2022-07-26T04:03:08.266Z,50.877277
2022-07-26T04:04:09.079Z,50.877296
2022-07-26T04:05:08.243Z,50.877254
2022-07-26T04:06:08.212Z,50.877251
2022-07-26T04:07:08.206Z,50.877293
2022-07-26T04:08:08.221Z,50.877209
2022-07-26T04:09:08.225Z,50.877235
2022-07-26T04:10:08.185Z,50.877293
2022-07-26T04:11:08.180Z,50.877270
2022-07-26T04:12:08.166Z,50.877239
2022-07-26T04:13:08.170Z,50.877235
2022-07-26T04:14:08.541Z,50.877235
2022-07-26T04:15:08.140Z,50.877213
2022-07-26T04:16:08.111Z,50.877228
2022-07-26T04:17:08.188Z,50.877235
2022-07-26T04:18:08.124Z,50.877213
2022-07-26T04:19:08.097Z,50.877220
2022-07-26T04:20:08.086Z,50.877239
2022-07-26T04:21:08.092Z,50.877254
2022-07-26T04:22:08.064Z,50.877296
2022-07-26T04:23:11.364Z,50.877258
2022-07-26T04:24:08.336Z,50.877266
2022-07-26T04:25:08.037Z,50.877243
2022-07-26T04:26:08.041Z,50.877243
2022-07-26T04:27:08.018Z,50.877232
2022-07-26T04:28:08.005Z,50.877232
2022-07-26T04:29:07.987Z,50.877228
2022-07-26T04:30:14.001Z,50.877224
2022-07-26T04:31:10.054Z,50.877209
2022-07-26T04:32:07.962Z,50.877224
2022-07-26T04:33:07.969Z,50.877213
2022-07-26T04:34:08.307Z,50.877216
2022-07-26T04:35:07.932Z,50.877220
2022-07-26T04:36:07.943Z,50.877220
2022-07-26T04:37:07.913Z,50.877216
2022-07-26T04:38:07.909Z,50.877201
2022-07-26T04:39:07.909Z,50.877205
2022-07-26T04:40:07.894Z,50.877213
2022-07-26T04:41:07.901Z,50.877220
2022-07-26T04:42:07.876Z,50.877216
2022-07-26T04:43:09.407Z,50.877220
2022-07-26T04:44:09.298Z,50.877197
2022-07-26T04:45:08.720Z,50.877205
2022-07-26T04:46:08.927Z,50.877213
2022-07-26T04:47:07.809Z,50.877228
2022-07-26T04:48:07.876Z,50.877235
2022-07-26T04:49:07.885Z,50.877220
2022-07-26T04:50:07.799Z,50.877228
2022-07-26T04:51:07.798Z,50.877220
2022-07-26T04:52:07.782Z,50.877220
2022-07-26T04:53:08.087Z,50.877235
2022-07-26T04:54:08.109Z,50.877224
2022-07-26T04:55:07.741Z,50.877213
2022-07-26T04:56:07.768Z,50.877216
2022-07-26T04:57:07.723Z,50.877197
2022-07-26T04:58:07.934Z,50.877224
2022-07-26T04:59:07.708Z,50.877201
2022-07-26T05:00:21.456Z,50.877197
2022-07-26T05:01:11.006Z,50.877205
2022-07-26T05:02:08.871Z,50.877190
2022-07-26T05:03:07.813Z,50.877213
2022-07-26T05:04:07.868Z,50.877190
2022-07-26T05:05:07.645Z,50.877190
2022-07-26T05:06:07.662Z,50.877190
2022-07-26T05:07:07.615Z,50.877205
2022-07-26T05:08:07.609Z,50.877201
2022-07-26T05:09:07.631Z,50.877205
2022-07-26T05:10:07.599Z,50.877205
2022-07-26T05:11:07.587Z,50.877201
2022-07-26T05:12:07.581Z,50.877213
2022-07-26T05:13:07.559Z,50.877235
2022-07-26T05:14:07.909Z,50.877228
2022-07-26T05:15:13.919Z,50.877205
2022-07-26T05:16:11.961Z,50.877197
2022-07-26T05:17:09.119Z,50.877228
2022-07-26T05:18:08.116Z,50.877197
2022-07-26T05:19:07.506Z,50.877197
2022-07-26T05:20:07.516Z,50.877190
2022-07-26T05:21:07.500Z,50.877155
2022-07-26T05:22:07.481Z,50.877182
2022-07-26T06:19:47.393Z,50.876659
2022-07-26T06:20:42.213Z,50.876713
2022-07-26T06:21:42.258Z,50.877205
2022-07-26T06:22:42.187Z,50.877258
2022-07-26T06:23:42.178Z,50.877174
2022-07-26T06:24:43.183Z,50.877136
2022-07-26T06:25:42.180Z,50.877140
2022-07-26T06:26:42.199Z,50.877132
2022-07-26T06:27:42.151Z,50.877117
2022-07-26T06:28:42.147Z,50.877193
2022-07-26T06:29:42.143Z,50.877201
2022-07-26T06:30:42.128Z,50.877186
2022-07-26T06:31:42.216Z,50.877171
2022-07-26T06:32:42.113Z,50.877182
2022-07-26T06:33:42.101Z,50.877190
2022-07-26T06:34:42.098Z,50.877186
2022-07-26T06:35:42.085Z,50.877190
2022-07-26T06:36:42.097Z,50.877197
2022-07-26T06:37:42.061Z,50.877224
2022-07-26T06:38:42.066Z,50.877216
2022-07-26T06:39:42.074Z,50.877174
2022-07-26T06:40:42.057Z,50.877098
2022-07-26T06:41:42.044Z,50.877121
2022-07-26T06:42:42.020Z,50.877163
2022-07-26T06:43:42.012Z,50.877243
2022-07-26T06:44:42.031Z,50.877235
2022-07-26T06:45:42.029Z,50.877209
2022-07-26T06:46:41.990Z,50.877178
2022-07-26T06:47:41.966Z,50.877087
2022-07-26T06:48:47.484Z,50.877048
2022-07-26T06:49:43.030Z,50.877007
2022-07-26T06:50:41.973Z,50.877155
2022-07-26T06:51:41.947Z,50.877148
2022-07-26T06:52:41.943Z,50.877121
2022-07-26T06:53:42.982Z,50.877079
2022-07-26T06:54:41.921Z,50.877041
2022-07-26T06:55:41.902Z,50.877052
2022-07-26T06:56:41.909Z,50.877075
2022-07-26T06:57:49.843Z,50.877033
2022-07-26T06:58:41.914Z,50.877033
2022-07-26T06:59:41.869Z,50.877033
2022-07-26T07:00:41.937Z,50.877033
2022-07-26T07:01:51.836Z,50.877033
2022-07-26T07:02:42.855Z,50.877033
2022-07-26T07:03:41.838Z,50.877033
2022-07-26T07:04:41.882Z,50.877033
2022-07-26T07:05:45.243Z,50.877335
2022-07-26T07:06:42.818Z,50.877369
2022-07-26T07:07:42.236Z,50.877453
2022-07-26T07:08:41.805Z,50.877556
2022-07-26T07:09:41.805Z,50.877480
2022-07-26T07:10:41.794Z,50.877426
2022-07-26T07:11:41.784Z,50.877411
2022-07-26T07:12:41.768Z,50.877552
2022-07-26T07:13:41.756Z,50.877262
2022-07-26T07:14:41.737Z,50.877197
2022-07-26T07:15:41.753Z,50.877197
2022-07-26T07:16:41.770Z,50.877216
2022-07-26T07:17:41.702Z,50.877193
2022-07-26T07:18:46.141Z,50.877163
2022-07-26T07:19:42.704Z,50.877186
2022-07-26T07:20:41.689Z,50.877205
2022-07-26T07:21:41.717Z,50.877201
2022-07-26T07:22:41.676Z,50.877159
2022-07-26T07:23:41.669Z,50.877167
2022-07-26T07:24:41.647Z,50.877174
2022-07-26T07:25:41.636Z,50.877193
2022-07-26T07:26:41.660Z,50.877178
2022-07-26T07:27:41.662Z,50.877209
2022-07-26T07:28:41.608Z,50.877148
2022-07-26T07:29:42.126Z,50.877209
2022-07-26T07:30:41.623Z,50.877151
2022-07-26T07:31:48.917Z,50.877220
2022-07-26T07:32:41.650Z,50.877213
2022-07-26T07:33:52.762Z,50.877213
2022-07-26T07:34:42.561Z,50.877228
2022-07-26T07:35:41.574Z,50.877228
2022-07-26T07:36:42.543Z,50.877228
2022-07-26T07:37:53.845Z,50.877235
2022-07-26T07:38:42.837Z,50.877235
2022-07-26T07:39:41.538Z,50.877232
2022-07-26T07:41:00.431Z,50.877232
2022-07-26T07:41:41.521Z,50.877247
2022-07-26T07:42:41.490Z,50.877258
2022-07-26T07:43:41.493Z,50.877190
2022-07-26T07:44:41.485Z,50.877224
2022-07-26T07:45:41.496Z,50.877228
2022-07-26T07:46:41.562Z,50.877243
2022-07-26T07:47:41.451Z,50.877243
2022-07-26T07:48:46.794Z,50.877197
2022-07-26T07:49:43.464Z,50.877220
2022-07-26T07:50:41.458Z,50.877121
2022-07-26T07:51:41.408Z,50.877178
2022-07-26T07:52:41.442Z,50.877178
2022-07-26T07:53:41.414Z,50.877159
2022-07-26T07:54:42.279Z,50.877148
2022-07-26T07:56:00.275Z,50.877113
2022-07-26T07:56:41.456Z,50.877182
2022-07-26T07:57:41.368Z,50.877186
2022-07-26T07:58:41.367Z,50.877098
2022-07-26T07:59:41.371Z,50.877140
2022-07-26T08:00:41.422Z,50.877163
2022-07-26T08:01:41.514Z,50.877178
2022-07-26T08:02:41.325Z,50.877190
2022-07-26T08:03:41.379Z,50.877201
2022-07-26T08:04:41.401Z,50.877205
2022-07-26T08:05:41.305Z,50.877205
2022-07-26T08:06:41.440Z,50.877190
2022-07-26T08:07:41.294Z,50.877205
2022-07-26T08:08:41.302Z,50.877197
2022-07-26T08:09:42.832Z,50.877193
2022-07-26T08:10:43.593Z,50.877205
2022-07-26T08:11:42.312Z,50.877209
2022-07-26T08:12:41.269Z,50.877197
2022-07-26T08:14:00.107Z,50.877213
2022-07-26T08:14:42.016Z,50.877197
2022-07-26T08:15:41.968Z,50.877197
2022-07-26T08:16:43.781Z,50.877201
2022-07-26T08:17:42.142Z,50.877209
2022-07-26T08:18:55.716Z,50.877197
2022-07-26T08:19:43.195Z,50.877213
2022-07-26T08:20:41.162Z,50.877193
2022-07-26T08:21:41.163Z,50.877193
2022-07-26T08:22:41.157Z,50.877190
2022-07-26T08:23:41.136Z,50.877213
2022-07-26T08:24:41.176Z,50.877201
2022-07-26T08:25:55.134Z,50.877197
2022-07-26T08:26:42.120Z,50.877209
2022-07-26T08:27:41.406Z,50.877213
2022-07-26T08:28:48.724Z,50.877193
2022-07-26T08:29:43.135Z,50.877220
2022-07-26T08:30:41.079Z,50.877224
2022-07-26T08:31:41.160Z,50.877224
2022-07-26T08:32:41.063Z,50.877209
2022-07-26T08:33:45.942Z,50.877213
2022-07-26T08:34:41.044Z,50.877205
2022-07-26T08:35:41.026Z,50.877197
2022-07-26T08:36:54.882Z,50.877197
2022-07-26T08:37:43.038Z,50.877209
2022-07-26T08:38:41.014Z,50.877205
2022-07-26T08:39:40.994Z,50.877209
2022-07-26T08:40:40.998Z,50.877213
2022-07-26T08:41:41.004Z,50.877209
2022-07-26T08:42:41.049Z,50.877201
2022-07-26T08:43:48.985Z,50.877193
2022-07-26T08:44:40.959Z,50.877213
2022-07-26T08:45:40.944Z,50.877205
2022-07-26T08:46:40.948Z,50.877190
2022-07-26T08:48:00.803Z,50.877197
2022-07-26T08:48:42.947Z,50.877178
2022-07-26T08:49:40.897Z,50.877186
2022-07-26T08:50:40.879Z,50.877144
2022-07-26T08:51:40.876Z,50.877182
2022-07-26T08:52:40.869Z,50.877205
2022-07-26T08:53:40.893Z,50.877220
2022-07-26T08:54:40.852Z,50.877239
2022-07-26T08:56:08.217Z,50.877239
2022-07-26T08:56:42.853Z,50.877239
2022-07-26T08:57:40.822Z,50.877216
2022-07-26T08:58:40.951Z,50.877190
2022-07-26T08:59:40.850Z,50.877216
2022-07-26T09:00:40.897Z,50.877232
2022-07-26T09:01:40.783Z,50.877247
2022-07-26T09:02:40.772Z,50.877312
2022-07-26T09:03:40.842Z,50.877247
2022-07-26T09:04:44.460Z,50.877258
2022-07-26T09:05:41.760Z,50.877205
2022-07-26T09:06:40.754Z,50.877216
2022-07-26T09:07:40.756Z,50.877251
2022-07-26T09:08:40.731Z,50.877232
2022-07-26T09:09:40.730Z,50.877224
2022-07-26T09:10:40.715Z,50.877216
2022-07-26T09:11:40.691Z,50.877239
2022-07-26T09:12:40.709Z,50.877224
2022-07-26T09:13:40.676Z,50.877224
2022-07-26T09:14:40.665Z,50.877163
2022-07-26T09:15:40.654Z,50.877213
2022-07-26T09:16:40.704Z,50.877190
2022-07-26T09:17:40.648Z,50.877216
2022-07-26T09:18:40.637Z,50.877197
2022-07-26T09:19:40.622Z,50.877285
2022-07-26T09:20:40.613Z,50.877289
2022-07-26T09:21:40.626Z,50.877224
2022-07-26T09:22:40.589Z,50.877235
2022-07-26T09:23:40.633Z,50.877197
2022-07-26T09:24:40.567Z,50.877174
2022-07-26T09:25:40.579Z,50.877247
2022-07-26T09:26:40.571Z,50.877197
2022-07-26T09:27:40.562Z,50.877186
2022-07-26T09:28:45.139Z,50.877258
2022-07-26T09:29:40.542Z,50.877239
2022-07-26T09:30:40.526Z,50.877197
2022-07-26T09:31:40.565Z,50.877174
2022-07-26T09:32:40.528Z,50.877163
2022-07-26T09:33:40.478Z,50.877178
2022-07-26T09:34:51.807Z,50.877182
2022-07-26T09:35:50.982Z,50.877174
2022-07-26T09:36:42.479Z,50.877174
2022-07-26T09:37:40.468Z,50.877171
2022-07-26T09:38:40.455Z,50.877163
2022-07-26T09:39:40.470Z,50.877163
2022-07-26T09:40:40.431Z,50.877163
2022-07-26T09:41:40.412Z,50.877155
2022-07-26T09:42:40.437Z,50.877144
2022-07-26T09:43:40.405Z,50.877159
2022-07-26T09:44:47.850Z,50.877171
2022-07-26T09:45:40.388Z,50.877174
2022-07-26T09:46:40.407Z,50.877174
2022-07-26T09:47:40.368Z,50.877178
2022-07-26T09:49:08.242Z,50.877197
2022-07-26T09:49:41.912Z,50.877193
2022-07-26T09:50:40.346Z,50.877171
2022-07-26T09:51:40.360Z,50.877167
2022-07-26T09:52:40.317Z,50.877155
2022-07-26T09:53:40.313Z,50.877171
2022-07-26T09:54:40.301Z,50.877201
2022-07-26T09:55:44.830Z,50.877201
2022-07-26T09:56:41.275Z,50.877243
2022-07-26T09:57:40.278Z,50.877197
2022-07-26T09:58:40.257Z,50.877171
2022-07-26T09:59:40.247Z,50.877174
2022-07-26T10:00:40.281Z,50.877186
2022-07-26T10:01:40.353Z,50.877193
2022-07-26T10:02:40.247Z,50.877171
2022-07-26T10:03:40.252Z,50.877190
2022-07-26T10:04:40.193Z,50.877171
2022-07-26T10:05:40.190Z,50.877178
2022-07-26T10:06:40.203Z,50.877171
2022-07-26T10:07:40.170Z,50.877190
2022-07-26T10:08:40.157Z,50.877182
2022-07-26T10:09:40.153Z,50.877174
2022-07-26T10:10:40.138Z,50.877174
2022-07-26T10:11:40.133Z,50.877174
2022-07-26T10:12:40.139Z,50.877182
2022-07-26T10:13:40.117Z,50.877178
2022-07-26T10:14:40.129Z,50.877197
2022-07-26T10:15:40.117Z,50.877186
2022-07-26T10:16:40.098Z,50.877186
2022-07-26T10:17:40.073Z,50.877186
2022-07-26T10:18:40.731Z,50.877186
2022-07-26T10:19:41.769Z,50.877186
2022-07-26T10:20:41.068Z,50.877186
2022-07-26T10:21:40.027Z,50.877186
2022-07-26T10:22:41.495Z,50.877186
2022-07-26T10:23:40.037Z,50.877186
2022-07-26T10:24:40.012Z,50.877216
2022-07-26T10:25:40.046Z,50.877205
2022-07-26T10:26:39.989Z,50.877209
2022-07-26T10:27:40.980Z,50.877193
2022-07-26T10:28:39.986Z,50.877182
2022-07-26T10:29:39.966Z,50.877167
2022-07-26T10:30:39.988Z,50.877174
2022-07-26T10:31:40.014Z,50.877167
2022-07-26T10:32:39.931Z,50.877163
2022-07-26T10:33:39.930Z,50.877171
2022-07-26T10:34:39.909Z,50.877144
2022-07-26T10:35:39.906Z,50.877155
2022-07-26T10:36:40.926Z,50.877178
2022-07-26T10:37:39.890Z,50.877178
2022-07-26T10:38:39.880Z,50.877193
2022-07-26T10:39:39.846Z,50.877193
2022-07-26T10:40:39.867Z,50.877171
2022-07-26T10:41:39.866Z,50.877167
2022-07-26T10:42:39.835Z,50.877171
2022-07-26T10:43:41.401Z,50.877213
2022-07-26T10:44:40.810Z,50.877216
2022-07-26T10:45:39.829Z,50.877197
2022-07-26T10:46:39.922Z,50.877193
2022-07-26T10:47:39.780Z,50.877178
2022-07-26T10:48:39.793Z,50.877201
2022-07-26T10:49:40.768Z,50.877136
2022-07-26T10:50:39.754Z,50.877193
2022-07-26T10:51:39.805Z,50.877197
2022-07-26T10:52:39.726Z,50.877178
2022-07-26T10:53:39.717Z,50.877190
2022-07-26T10:54:39.721Z,50.877186
2022-07-26T10:55:39.695Z,50.877201
2022-07-26T10:56:39.715Z,50.877197
2022-07-26T10:57:39.722Z,50.877174
2022-07-26T10:58:39.672Z,50.877174
2022-07-26T10:59:55.462Z,50.877197
2022-07-26T11:00:41.667Z,50.877190
2022-07-26T11:01:39.709Z,50.877193
2022-07-26T11:02:39.748Z,50.877186
2022-07-26T11:03:39.640Z,50.877193
2022-07-26T11:04:39.617Z,50.877159
2022-07-26T11:05:39.614Z,50.877178
2022-07-26T11:06:39.608Z,50.877171
2022-07-26T11:07:39.585Z,50.877178
2022-07-26T11:08:42.356Z,50.877178
2022-07-26T11:09:40.564Z,50.877193
2022-07-26T11:10:39.624Z,50.877201
2022-07-26T11:11:39.563Z,50.877197
2022-07-26T11:12:40.541Z,50.877190
2022-07-26T11:13:39.537Z,50.877171
2022-07-26T11:14:41.689Z,50.877201
2022-07-26T11:15:40.578Z,50.877167
2022-07-26T11:16:39.504Z,50.877186
2022-07-26T11:17:39.501Z,50.877197
2022-07-26T11:18:39.480Z,50.877178
2022-07-26T11:19:39.476Z,50.877186
2022-07-26T11:20:39.464Z,50.877182
2022-07-26T11:21:39.468Z,50.877205
2022-07-26T11:22:39.441Z,50.877174
2022-07-26T11:23:39.438Z,50.877190
2022-07-26T11:24:39.406Z,50.877171
2022-07-26T11:25:40.431Z,50.877186
2022-07-26T11:26:39.443Z,50.877178
2022-07-26T11:27:39.402Z,50.877155
2022-07-26T11:28:39.377Z,50.877186
2022-07-26T11:29:40.601Z,50.877174
2022-07-26T11:30:39.365Z,50.877197
2022-07-26T11:31:50.954Z,50.877178
2022-07-26T11:32:40.367Z,50.877171
2022-07-26T11:33:39.334Z,50.877167
2022-07-26T11:34:39.358Z,50.877171
2022-07-26T11:35:39.318Z,50.877182
2022-07-26T11:36:39.338Z,50.877171
2022-07-26T11:37:39.291Z,50.877151
2022-07-26T11:38:39.283Z,50.877148
2022-07-26T11:39:39.282Z,50.877136
2022-07-26T11:40:39.259Z,50.877182
2022-07-26T11:41:39.263Z,50.877205
2022-07-26T11:42:39.276Z,50.877182
2022-07-26T11:43:39.253Z,50.877159
2022-07-26T11:44:39.248Z,50.877121
2022-07-26T11:45:39.226Z,50.877220
2022-07-26T11:46:39.253Z,50.877197
2022-07-26T11:47:39.227Z,50.877201
2022-07-26T11:48:39.261Z,50.877186
2022-07-26T11:49:52.113Z,50.877186
2022-07-26T11:50:40.161Z,50.877190
2022-07-26T11:51:39.166Z,50.877182
2022-07-26T11:52:39.162Z,50.877205
2022-07-26T11:53:39.205Z,50.877205
2022-07-26T11:54:39.122Z,50.877193
2022-07-26T11:55:41.782Z,50.877178
2022-07-26T11:56:40.113Z,50.877144
2022-07-26T11:57:39.127Z,50.877136
2022-07-26T11:58:39.083Z,50.877163
2022-07-26T11:59:39.088Z,50.877159
2022-07-26T12:00:39.090Z,50.877163
2022-07-26T12:01:39.078Z,50.877171
2022-07-26T12:02:39.098Z,50.877159
2022-07-26T12:03:39.132Z,50.877113
2022-07-26T12:04:39.124Z,50.877083
2022-07-26T12:05:39.091Z,50.877121
2022-07-26T12:06:39.033Z,50.877110
2022-07-26T12:07:38.994Z,50.877113
2022-07-26T12:08:39.029Z,50.877121
2022-07-26T12:09:38.983Z,50.877129
2022-07-26T12:10:39.010Z,50.877171
2022-07-26T12:11:38.974Z,50.877159
2022-07-26T12:13:10.853Z,50.877075
2022-07-26T12:13:39.746Z,50.877060
2022-07-26T12:14:39.926Z,50.877033
2022-07-26T12:15:38.968Z,50.877117
2022-07-26T12:16:38.917Z,50.877083
2022-07-26T12:17:38.912Z,50.877087
2022-07-26T12:18:38.902Z,50.877129
2022-07-26T12:19:38.870Z,50.877117
2022-07-26T12:20:38.911Z,50.877129